Time;durP1;ratioP1;P1;durP2;ratioP2;P2;SDS_P1;SDS_P2;PMS_P1;PMS_P2;Temp;Humidity;BMP_temperature;BMP_pressure;BME280_temperature;BME280_humidity;BME280_pressure;Samples;Min_cycle;Max_cycle;Signal;HPM_P1;HPM_P2
2021/09/07 00:00:05;;;;;;;;;17.00;15.50;;;;;25.08;98.56;101913.31;5003334;28;48140;-71
2021/09/07 00:02:30;;;;;;;;;15.50;13.50;;;;;25.18;99.41;101935.06;5006775;28;45356;-71
2021/09/07 00:04:56;;;;;;;;;13.00;13.00;;;;;25.14;99.78;101930.84;5009216;28;45685;-72
2021/09/07 00:07:24;;;;;;;;;16.50;14.50;;;;;25.13;100.00;101934.47;5016386;28;45401;-71
2021/09/07 00:09:49;;;;;;;;;16.50;15.25;;;;;25.05;100.00;101924.19;5018207;28;45707;-71
2021/09/07 00:12:15;;;;;;;;;16.75;15.00;;;;;24.88;100.00;101914.41;5027002;28;45330;-71
2021/09/07 00:14:40;;;;;;;;;18.25;16.25;;;;;24.97;100.00;101929.94;5023102;28;45536;-71
2021/09/07 00:17:05;;;;;;;;;13.00;12.75;;;;;24.99;100.00;101944.13;5033394;28;45335;-71
2021/09/07 00:19:31;;;;;;;;;12.25;12.00;;;;;24.95;100.00;101936.31;5030153;28;45451;-72
2021/09/07 00:21:56;;;;;;;;;16.25;15.25;;;;;24.93;100.00;101936.41;5021863;28;45462;-71
2021/09/07 00:24:22;;;;;;;;;15.75;14.00;;;;;24.90;100.00;101936.59;5022825;28;45811;-72
2021/09/07 00:26:47;;;;;;;;;15.00;14.00;;;;;24.86;100.00;101939.50;5026971;28;45410;-70
2021/09/07 00:29:12;;;;;;;;;16.25;16.25;;;;;24.82;100.00;101935.25;5016405;28;46266;-71
2021/09/07 00:31:38;;;;;;;;;14.75;14.25;;;;;24.76;100.00;101928.47;5012716;28;45388;-71
2021/09/07 00:34:03;;;;;;;;;18.75;17.75;;;;;24.71;100.00;101927.84;5014090;28;45437;-70
2021/09/07 00:36:28;;;;;;;;;18.50;17.00;;;;;24.62;100.00;101918.50;5016008;28;45404;-71
2021/09/07 00:38:54;;;;;;;;;18.25;18.25;;;;;24.66;100.00;101920.06;5013336;28;45393;-70
2021/09/07 00:41:19;;;;;;;;;17.00;16.75;;;;;24.63;100.00;101917.56;5019251;28;45353;-71
2021/09/07 00:43:47;;;;;;;;;18.75;16.75;;;;;24.57;100.00;101917.91;5018414;28;45927;-71
2021/09/07 00:46:13;;;;;;;;;19.00;18.00;;;;;24.54;100.00;101919.88;5019885;28;45417;-70
2021/09/07 00:48:38;;;;;;;;;18.75;17.00;;;;;24.53;100.00;101918.16;5017331;28;45497;-71
2021/09/07 00:51:03;;;;;;;;;19.50;17.75;;;;;24.46;100.00;101906.97;5027068;28;45230;-70
2021/09/07 00:53:29;;;;;;;;;15.75;15.25;;;;;24.46;100.00;101914.97;5017328;28;45435;-70
2021/09/07 00:55:57;;;;;;;;;17.75;16.25;;;;;24.40;100.00;101907.25;5027323;28;45407;-70
2021/09/07 00:58:29;;;;;;;;;18.75;18.00;;;;;24.41;100.00;101908.97;5021955;28;46268;-69
2021/09/07 01:00:54;;;;;;;;;19.75;18.00;;;;;24.38;100.00;101911.81;5025116;28;45689;-70
2021/09/07 01:03:19;;;;;;;;;19.25;17.25;;;;;24.36;100.00;101906.56;5029273;28;45363;-71
2021/09/07 01:05:47;;;;;;;;;18.75;17.75;;;;;24.32;100.00;101909.50;5023573;28;45496;-71
2021/09/07 01:08:13;;;;;;;;;14.75;14.00;;;;;24.27;100.00;101904.38;5016526;28;45562;-71
2021/09/07 01:10:38;;;;;;;;;24.75;19.25;;;;;24.28;100.00;101902.56;5018291;28;45432;-72
2021/09/07 01:13:04;;;;;;;;;21.25;19.75;;;;;24.19;100.00;101890.53;5033538;28;45464;-71
2021/09/07 01:15:32;;;;;;;;;18.50;17.75;;;;;24.23;100.00;101901.94;5038387;28;45302;-71
2021/09/07 01:17:57;;;;;;;;;20.00;19.25;;;;;24.20;100.00;101897.59;5022741;28;46249;-71
2021/09/07 01:20:23;;;;;;;;;20.50;18.75;;;;;24.13;100.00;101896.22;5019231;28;45431;-71
2021/09/07 01:22:48;;;;;;;;;24.25;21.00;;;;;24.12;100.00;101892.69;5018711;28;45486;-71
2021/09/07 01:25:16;;;;;;;;;21.75;19.50;;;;;24.03;100.00;101887.84;5017942;28;46245;-71
2021/09/07 01:27:42;;;;;;;;;24.75;23.50;;;;;24.05;100.00;101893.97;5019067;28;45381;-71
2021/09/07 01:30:08;;;;;;;;;18.75;17.50;;;;;24.01;100.00;101888.88;5019337;28;45532;-70
2021/09/07 01:32:33;;;;;;;;;24.00;21.75;;;;;24.01;100.00;101892.41;5028965;28;45438;-71
2021/09/07 01:34:58;;;;;;;;;26.25;22.75;;;;;24.00;100.00;101887.16;5023245;28;45381;-71
2021/09/07 01:37:26;;;;;;;;;26.00;22.00;;;;;23.99;100.00;101890.72;5018890;28;46391;-71
2021/09/07 01:39:51;;;;;;;;;22.50;20.25;;;;;23.95;100.00;101879.34;5018413;28;45619;-70
2021/09/07 01:42:16;;;;;;;;;23.75;23.00;;;;;23.90;100.00;101872.53;5030168;28;45722;-71
2021/09/07 01:44:43;;;;;;;;;22.75;20.00;;;;;23.94;100.00;101874.09;5018124;28;45263;-71
2021/09/07 01:47:09;;;;;;;;;24.00;21.75;;;;;23.88;100.00;101877.09;5029216;28;46696;-71
2021/09/07 01:49:35;;;;;;;;;24.50;22.00;;;;;23.86;100.00;101877.19;5017912;28;45287;-70
2021/09/07 01:52:09;;;;;;;;;24.25;22.50;;;;;23.86;100.00;101884.31;5019625;28;45434;-70
2021/09/07 01:54:39;;;;;;;;;20.50;18.75;;;;;23.82;100.00;101881.81;5014124;28;45425;-70
2021/09/07 01:57:04;;;;;;;;;22.50;18.50;;;;;23.74;100.00;101878.66;5008931;28;46398;-71
2021/09/07 01:59:30;;;;;;;;;22.00;19.50;;;;;23.70;100.00;101866.41;5018727;28;45395;-71
2021/09/07 02:01:55;;;;;;;;;16.00;15.00;;;;;23.74;100.00;101883.13;5018848;28;45314;-70
2021/09/07 02:04:20;;;;;;;;;20.50;19.25;;;;;23.71;100.00;101886.81;5017614;28;45357;-70
2021/09/07 02:06:46;;;;;;;;;18.50;17.00;;;;;23.61;100.00;101866.03;5017868;28;46427;-70
2021/09/07 02:09:11;;;;;;;;;23.75;19.75;;;;;23.67;100.00;101876.38;5030079;28;45372;-71
2021/09/07 02:11:36;;;;;;;;;20.50;17.50;;;;;23.62;100.00;101876.63;5027162;28;45382;-71
2021/09/07 02:14:02;;;;;;;;;21.00;19.50;;;;;23.59;100.00;101876.78;5018472;28;45342;-71
2021/09/07 02:16:27;;;;;;;;;16.00;14.00;;;;;23.62;100.00;101883.75;5027945;28;46905;-71
2021/09/07 02:18:53;;;;;;;;;19.50;18.25;;;;;23.55;100.00;101877.00;5018484;28;45364;-70
2021/09/07 02:21:18;;;;;;;;;18.50;17.00;;;;;23.53;100.00;101867.22;5017537;28;45235;-70
2021/09/07 02:23:43;;;;;;;;;17.50;16.00;;;;;23.48;100.00;101863.94;5017751;28;45410;-70
2021/09/07 02:26:09;;;;;;;;;18.75;16.50;;;;;23.41;100.00;101856.34;5022274;28;46558;-71
2021/09/07 02:28:34;;;;;;;;;19.25;16.00;;;;;23.49;100.00;101871.00;5017128;28;45354;-71
2021/09/07 02:30:59;;;;;;;;;21.00;16.50;;;;;23.47;100.00;101866.69;5021642;28;45520;-70
2021/09/07 02:33:25;;;;;;;;;24.25;23.25;;;;;23.42;100.00;101860.75;5017423;28;45275;-71
2021/09/07 02:35:50;;;;;;;;;31.50;27.75;;;;;23.39;100.00;101861.75;5021435;28;46215;-70
2021/09/07 02:38:15;;;;;;;;;21.25;17.00;;;;;23.22;100.00;101833.28;5016980;28;45474;-71
2021/09/07 02:40:41;;;;;;;;;21.00;18.00;;;;;23.29;100.00;101841.81;5018379;28;45466;-71
2021/09/07 02:43:06;;;;;;;;;16.00;15.50;;;;;23.33;100.00;101848.75;4999191;28;45407;-70
2021/09/07 02:45:32;;;;;;;;;18.00;16.75;;;;;23.30;100.00;101843.53;5017818;28;46563;-71
2021/09/07 02:47:57;;;;;;;;;18.50;15.00;;;;;23.32;100.00;101852.34;5017324;28;45302;-71
2021/09/07 02:50:22;;;;;;;;;17.00;17.00;;;;;23.30;100.00;101850.66;5017929;28;45456;-71
2021/09/07 02:52:48;;;;;;;;;20.00;17.75;;;;;23.26;100.00;101843.78;5017135;28;45345;-70
2021/09/07 02:55:13;;;;;;;;;17.25;17.00;;;;;23.20;100.00;101842.28;5022813;28;45488;-71
2021/09/07 02:57:39;;;;;;;;;18.00;17.00;;;;;23.22;100.00;101843.06;5022006;28;45459;-71
2021/09/07 03:00:05;;;;;;;;;18.00;16.25;;;;;23.15;100.00;101834.53;5017863;28;45353;-69
2021/09/07 03:02:31;;;;;;;;;21.50;17.75;;;;;23.17;100.00;101837.97;5004871;28;45414;-70
2021/09/07 03:04:56;;;;;;;;;16.50;16.25;;;;;23.05;100.00;101827.91;5016211;28;47285;-71
2021/09/07 03:07:21;;;;;;;;;16.00;14.00;;;;;23.04;100.00;101825.31;5017744;28;45374;-70
2021/09/07 03:09:47;;;;;;;;;19.25;17.50;;;;;23.04;100.00;101822.66;5016749;28;45460;-71
2021/09/07 03:12:12;;;;;;;;;21.25;20.75;;;;;23.01;100.00;101828.13;5022172;28;45440;-71
2021/09/07 03:14:38;;;;;;;;;24.75;23.75;;;;;23.00;100.00;101829.06;5014614;28;46591;-70
2021/09/07 03:17:04;;;;;;;;;18.25;15.50;;;;;23.00;100.00;101831.75;5016687;28;45417;-70
2021/09/07 03:19:30;;;;;;;;;16.00;15.00;;;;;22.98;100.00;101829.16;5030592;28;45243;-70
2021/09/07 03:21:56;;;;;;;;;19.50;14.00;;;;;22.94;100.00;101829.38;5018060;28;45431;-71
2021/09/07 03:24:21;;;;;;;;;17.50;16.25;;;;;22.90;100.00;101831.34;5016222;28;46370;-71
2021/09/07 03:26:47;;;;;;;;;18.00;14.75;;;;;22.87;100.00;101842.13;5016096;28;45303;-71
2021/09/07 03:29:12;;;;;;;;;19.00;17.75;;;;;22.86;100.00;101849.25;5016578;28;45349;-70
2021/09/07 03:31:38;;;;;;;;;18.25;15.75;;;;;22.77;100.00;101827.50;5017330;28;45423;-70
2021/09/07 03:34:04;;;;;;;;;17.00;14.00;;;;;22.81;100.00;101840.59;5016522;28;45421;-71
2021/09/07 03:36:29;;;;;;;;;18.25;17.50;;;;;22.75;100.00;101832.03;5026763;28;45508;-71
2021/09/07 03:38:55;;;;;;;;;17.25;16.25;;;;;22.73;100.00;101821.44;5016421;28;45473;-71
2021/09/07 03:41:20;;;;;;;;;15.50;14.50;;;;;22.68;100.00;101812.81;5016563;28;45382;-71
2021/09/07 03:43:46;;;;;;;;;19.00;16.25;;;;;22.68;100.00;101826.13;5018928;28;46292;-70
2021/09/07 03:46:11;;;;;;;;;17.25;16.50;;;;;22.68;100.00;101831.47;5018311;28;45291;-71
2021/09/07 03:48:36;;;;;;;;;21.25;18.00;;;;;22.67;100.00;101832.41;5015947;28;45384;-71
2021/09/07 03:51:02;;;;;;;;;19.50;17.50;;;;;22.65;100.00;101828.09;5022723;28;45251;-70
2021/09/07 03:53:29;;;;;;;;;18.25;17.50;;;;;22.67;100.00;101831.53;5017112;28;47082;-71
2021/09/07 03:55:55;;;;;;;;;15.75;15.50;;;;;22.57;100.00;101815.97;5031531;28;45700;-71
2021/09/07 03:58:20;;;;;;;;;19.00;17.75;;;;;22.56;100.00;101816.06;5008583;28;45775;-69
2021/09/07 04:00:46;;;;;;;;;17.75;16.25;;;;;22.51;100.00;101810.09;5015975;28;45414;-70
2021/09/07 04:03:19;;;;;;;;;14.75;14.00;;;;;22.53;100.00;101817.06;5023587;28;45427;-71
2021/09/07 04:05:45;;;;;;;;;15.25;14.25;;;;;22.53;100.00;101819.72;5018781;28;45358;-71
2021/09/07 04:08:11;;;;;;;;;16.25;15.25;;;;;22.52;100.00;101827.78;5016307;28;45338;-71
2021/09/07 04:10:37;;;;;;;;;17.25;16.00;;;;;22.49;100.00;101825.28;5015601;28;45472;-70
2021/09/07 04:13:02;;;;;;;;;19.25;16.25;;;;;22.42;100.00;101811.41;5016979;28;45526;-70
2021/09/07 04:15:28;;;;;;;;;18.00;17.00;;;;;22.40;100.00;101813.25;5019441;28;45454;-69
2021/09/07 04:17:53;;;;;;;;;16.50;15.00;;;;;22.43;100.00;101833.56;5016708;28;45679;-70
2021/09/07 04:20:18;;;;;;;;;16.00;15.00;;;;;22.29;100.00;101804.91;5016136;28;45326;-68
2021/09/07 04:22:44;;;;;;;;;16.75;15.25;;;;;22.43;100.00;101834.41;5026810;28;46160;-70
2021/09/07 04:25:10;;;;;;;;;19.75;18.25;;;;;22.43;100.00;101833.56;5016443;28;45467;-70
2021/09/07 04:27:37;;;;;;;;;15.25;15.25;;;;;22.37;100.00;101829.34;5016953;28;45393;-71
2021/09/07 04:30:04;;;;;;;;;17.50;16.50;;;;;22.36;100.00;101834.75;5015922;28;45363;-70
2021/09/07 04:32:30;;;;;;;;;17.00;15.25;;;;;22.38;100.00;101844.38;4998346;28;47103;-71
2021/09/07 04:34:55;;;;;;;;;18.75;17.50;;;;;22.31;100.00;101842.94;5018415;28;45199;-71
2021/09/07 04:37:20;;;;;;;;;19.50;17.00;;;;;22.33;100.00;101849.06;5016650;28;46188;-70
2021/09/07 04:39:50;;;;;;;;;17.25;17.00;;;;;22.30;100.00;101846.53;4998806;28;45293;-70
2021/09/07 04:42:15;;;;;;;;;17.75;16.25;;;;;22.30;100.00;101852.72;5016419;28;45672;-71
2021/09/07 04:44:41;;;;;;;;;18.75;17.25;;;;;22.19;100.00;101836.41;5015212;28;45457;-71
2021/09/07 04:47:06;;;;;;;;;22.00;18.50;;;;;22.18;100.00;101844.41;5009172;28;45308;-71
2021/09/07 04:49:31;;;;;;;;;20.75;20.00;;;;;22.20;100.00;101847.91;5009150;28;45507;-70
2021/09/07 04:51:57;;;;;;;;;17.75;16.25;;;;;22.14;100.00;101840.19;5018033;28;45529;-70
2021/09/07 04:54:22;;;;;;;;;17.00;16.00;;;;;22.17;100.00;101854.19;5020092;28;45408;-70
2021/09/07 04:56:47;;;;;;;;;20.75;19.75;;;;;22.10;100.00;101836.78;5020920;28;45485;-70
2021/09/07 04:59:13;;;;;;;;;20.00;17.50;;;;;22.18;100.00;101855.06;5019934;28;45460;-70
2021/09/07 05:01:38;;;;;;;;;18.50;17.25;;;;;22.15;100.00;101855.19;5019709;28;46137;-70
2021/09/07 05:04:04;;;;;;;;;19.00;17.75;;;;;22.06;100.00;101843.19;5000442;28;45370;-70
2021/09/07 05:06:29;;;;;;;;;23.25;18.25;;;;;22.05;100.00;101848.56;4999440;28;45483;-70
2021/09/07 05:08:54;;;;;;;;;21.75;16.25;;;;;21.91;100.00;101825.22;5020361;28;45307;-70
2021/09/07 05:11:20;;;;;;;;;17.25;16.75;;;;;22.01;100.00;101850.47;5027383;28;46271;-69
2021/09/07 05:13:45;;;;;;;;;22.25;20.25;;;;;22.06;100.00;101859.16;5031127;28;45727;-69
2021/09/07 05:16:10;;;;;;;;;17.75;17.50;;;;;22.04;100.00;101863.69;5005370;28;45235;-70
2021/09/07 05:18:36;;;;;;;;;21.50;18.75;;;;;22.02;100.00;101866.38;5021822;28;45433;-70
2021/09/07 05:21:02;;;;;;;;;18.00;17.50;;;;;22.01;100.00;101861.13;5023643;28;45455;-70
2021/09/07 05:23:27;;;;;;;;;16.75;16.00;;;;;21.91;100.00;101852.66;5019292;28;45460;-70
2021/09/07 05:25:53;;;;;;;;;19.50;19.00;;;;;21.96;100.00;101863.13;5019476;28;45579;-70
2021/09/07 05:28:18;;;;;;;;;20.25;19.00;;;;;21.99;100.00;101865.66;5018465;28;45290;-69
2021/09/07 05:30:43;;;;;;;;;57.25;45.75;;;;;21.94;100.00;101856.97;5020385;28;45429;-70
2021/09/07 05:33:09;;;;;;;;;18.00;15.75;;;;;21.97;100.00;101867.50;5024794;28;45497;-70
2021/09/07 05:35:34;;;;;;;;;18.00;16.25;;;;;21.96;100.00;101865.78;5019397;28;45415;-71
2021/09/07 05:38:00;;;;;;;;;19.75;18.25;;;;;21.99;100.00;101874.50;5017884;28;45576;-71
2021/09/07 05:40:25;;;;;;;;;18.00;17.75;;;;;21.96;100.00;101871.97;5021050;28;46487;-70
2021/09/07 05:42:50;;;;;;;;;22.75;19.50;;;;;22.00;100.00;101873.56;5017916;28;45405;-70
2021/09/07 05:45:26;;;;;;;;;18.75;15.50;;;;;21.96;100.00;101868.44;5021106;28;45352;-70
2021/09/07 05:47:51;;;;;;;;;15.50;15.25;;;;;22.00;100.00;101876.22;4999936;28;45640;-70
2021/09/07 05:50:16;;;;;;;;;17.75;17.00;;;;;22.02;100.00;101873.50;5020520;28;46402;-70
2021/09/07 05:52:43;;;;;;;;;18.75;18.75;;;;;22.02;100.00;101878.81;5023930;28;45341;-70
2021/09/07 05:55:09;;;;;;;;;19.75;18.00;;;;;21.96;100.00;101865.78;5017673;28;45212;-69
2021/09/07 05:57:34;;;;;;;;;17.25;17.25;;;;;21.96;100.00;101871.97;5006429;28;45496;-71
2021/09/07 06:00:00;;;;;;;;;18.00;17.75;;;;;22.05;100.00;101877.84;5017371;28;46610;-70
2021/09/07 06:02:25;;;;;;;;;19.75;19.00;;;;;22.05;100.00;101872.50;5018278;28;45359;-70
2021/09/07 06:04:51;;;;;;;;;20.25;18.25;;;;;21.96;100.00;101860.47;5017360;28;45340;-70
2021/09/07 06:07:17;;;;;;;;;24.75;22.75;;;;;22.05;100.00;101880.50;5015229;28;45572;-69
2021/09/07 06:09:43;;;;;;;;;21.75;20.50;;;;;22.10;100.00;101879.34;5017499;28;45501;-70
2021/09/07 06:12:08;;;;;;;;;19.00;17.25;;;;;22.11;100.00;101881.06;5022652;28;45530;-71
2021/09/07 06:14:34;;;;;;;;;22.75;20.50;;;;;22.15;100.00;101877.34;5020737;28;45403;-70
2021/09/07 06:17:00;;;;;;;;;19.50;19.00;;;;;22.10;100.00;101859.88;5018290;28;45313;-71
2021/09/07 06:19:26;;;;;;;;;22.25;18.00;;;;;22.15;100.00;101858.72;5025889;28;45647;-71
2021/09/07 06:21:52;;;;;;;;;23.50;21.00;;;;;22.23;100.00;101859.28;5017003;28;45464;-71
2021/09/07 06:24:17;;;;;;;;;17.75;17.50;;;;;22.27;100.00;101870.63;5017565;28;45417;-72
2021/09/07 06:26:43;;;;;;;;;20.50;19.25;;;;;22.28;100.00;101867.91;5017130;28;45318;-73
2021/09/07 06:29:08;;;;;;;;;21.25;19.75;;;;;22.31;100.00;101873.06;5016809;28;47221;-71
2021/09/07 06:31:34;;;;;;;;;22.75;19.75;;;;;22.31;100.00;101874.88;5016819;28;45331;-72
2021/09/07 06:33:59;;;;;;;;;21.00;19.25;;;;;22.35;100.00;101876.47;5024463;28;45444;-71
2021/09/07 06:36:25;;;;;;;;;21.25;20.00;;;;;22.39;100.00;101878.03;5021720;28;45420;-71
2021/09/07 06:38:50;;;;;;;;;24.25;20.50;;;;;22.45;100.00;101887.56;5016350;28;47131;-71
2021/09/07 06:41:16;;;;;;;;;23.75;21.75;;;;;22.47;100.00;101888.34;5016928;28;45337;-70
2021/09/07 06:43:41;;;;;;;;;23.75;21.75;;;;;22.48;100.00;101879.44;5017635;28;45492;-70
2021/09/07 06:46:07;;;;;;;;;20.00;19.00;;;;;22.54;100.00;101885.34;5017793;28;45415;-69
2021/09/07 06:48:32;;;;;;;;;21.50;19.75;;;;;22.58;100.00;101883.41;5016605;28;45651;-69
2021/09/07 06:50:58;;;;;;;;;22.25;20.25;;;;;22.62;100.00;101888.50;5018184;28;45405;-71
2021/09/07 06:53:23;;;;;;;;;21.00;19.00;;;;;22.64;100.00;101883.13;5021508;28;45473;-71
2021/09/07 06:55:49;;;;;;;;;23.75;20.75;;;;;22.73;100.00;101890.69;5006440;28;45522;-72
2021/09/07 06:58:14;;;;;;;;;19.25;19.00;;;;;22.76;100.00;101887.00;5005826;28;46118;-73
2021/09/07 07:00:39;;;;;;;;;27.75;22.75;;;;;22.80;100.00;101886.78;5017405;28;45472;-73
2021/09/07 07:03:05;;;;;;;;;25.75;21.25;;;;;22.85;100.00;101881.28;5017541;28;45536;-74
2021/09/07 07:05:30;;;;;;;;;23.25;21.00;;;;;22.90;100.00;101888.13;5017329;28;45397;-73
2021/09/07 07:07:55;;;;;;;;;19.00;18.00;;;;;22.92;100.00;101880.06;4984857;28;47534;-62
2021/09/07 07:10:21;;;;;;;;;23.00;20.75;;;;;23.02;100.00;101885.81;5015861;28;45578;-66
2021/09/07 07:12:47;;;;;;;;;26.00;23.75;;;;;23.03;100.00;101891.06;5023158;28;45482;-65
2021/09/07 07:15:12;;;;;;;;;26.00;20.75;;;;;23.07;100.00;101881.09;5016721;28;45335;-65
2021/09/07 07:17:37;;;;;;;;;22.25;20.75;;;;;23.11;100.00;101888.03;5024169;28;45897;-65
2021/09/07 07:20:03;;;;;;;;;22.25;22.25;;;;;23.14;100.00;101896.75;5026283;28;45355;-66
2021/09/07 07:22:29;;;;;;;;;20.75;20.00;;;;;23.22;100.00;101893.69;5015972;28;45346;-65
2021/09/07 07:24:54;;;;;;;;;22.00;20.25;;;;;23.25;100.00;101893.53;5025952;28;45489;-65
2021/09/07 07:27:20;;;;;;;;;20.50;19.00;;;;;23.29;100.00;101896.91;5015872;28;45453;-63
2021/09/07 07:29:46;;;;;;;;;24.00;22.75;;;;;23.33;100.00;101893.19;5015890;28;45302;-63
2021/09/07 07:32:11;;;;;;;;;19.00;18.00;;;;;23.30;100.00;101880.00;5024184;28;45447;-64
2021/09/07 07:34:37;;;;;;;;;20.75;18.75;;;;;23.46;100.00;101896.97;5021677;28;45385;-63
2021/09/07 07:37:04;;;;;;;;;20.25;19.50;;;;;23.55;100.00;101893.00;5005773;28;45406;-64
2021/09/07 07:39:31;;;;;;;;;20.00;19.00;;;;;23.75;100.00;101904.38;5013314;28;45468;-63
2021/09/07 07:41:56;;;;;;;;;18.75;16.50;;;;;23.85;100.00;101886.13;5022442;28;45811;-63
2021/09/07 07:44:22;;;;;;;;;19.50;18.25;;;;;24.07;100.00;101891.22;5015762;28;45399;-63
2021/09/07 07:46:47;;;;;;;;;18.00;18.00;;;;;24.23;100.00;101897.47;5008624;28;46478;-63
2021/09/07 07:49:12;;;;;;;;;22.50;20.25;;;;;24.45;100.00;101902.56;5021984;28;46002;-63
2021/09/07 07:51:38;;;;;;;;;20.00;19.00;;;;;24.62;100.00;101899.81;5009454;28;45556;-63
2021/09/07 07:54:07;;;;;;;;;23.75;20.00;;;;;24.82;100.00;101906.75;5022341;28;45535;-66
2021/09/07 07:56:33;;;;;;;;;21.75;18.50;;;;;25.02;100.00;101903.00;4996118;28;46577;-63
2021/09/07 07:58:58;;;;;;;;;23.75;18.25;;;;;25.18;100.00;101897.66;5019325;28;45399;-63
2021/09/07 08:01:23;;;;;;;;;22.75;20.25;;;;;25.41;100.00;101902.53;5024368;28;45480;-68
2021/09/07 08:03:49;;;;;;;;;21.00;21.00;;;;;25.60;100.00;101896.97;5026506;28;45575;-67
2021/09/07 08:06:14;;;;;;;;;23.00;20.50;;;;;25.80;100.00;101895.81;5023873;28;47213;-65
2021/09/07 08:08:39;;;;;;;;;20.75;20.00;;;;;25.98;100.00;101897.38;5019898;28;45389;-69
2021/09/07 08:11:05;;;;;;;;;20.50;18.75;;;;;26.12;100.00;101885.84;5021883;28;45419;-65
2021/09/07 08:13:30;;;;;;;;;19.25;19.25;;;;;26.38;100.00;101890.47;5005880;28;45430;-64
2021/09/07 08:15:55;;;;;;;;;25.75;22.75;;;;;26.65;100.00;101903.09;5011320;28;46877;-67
2021/09/07 08:18:21;;;;;;;;;19.75;18.50;;;;;26.77;100.00;101891.63;5028783;28;45453;-65
2021/09/07 08:20:48;;;;;;;;;17.25;15.75;;;;;27.08;100.00;101893.19;5015736;28;45381;-66
2021/09/07 08:23:13;;;;;;;;;18.25;17.00;;;;;27.29;100.00;101882.88;5015681;28;45539;-65
2021/09/07 08:25:39;;;;;;;;;18.00;17.75;;;;;27.59;100.00;101890.69;5018293;28;46728;-65
2021/09/07 08:28:04;;;;;;;;;19.75;17.25;;;;;27.83;100.00;101901.63;5015050;28;45488;-64
2021/09/07 08:30:30;;;;;;;;;19.25;18.50;;;;;28.02;98.24;101896.69;4998297;28;45352;-65
2021/09/07 08:32:56;;;;;;;;;20.25;20.00;;;;;28.22;98.02;101898.00;5014185;28;45462;-66
2021/09/07 08:35:21;;;;;;;;;20.75;19.00;;;;;28.34;96.53;101892.66;5018661;28;46436;-66
2021/09/07 08:37:47;;;;;;;;;17.00;16.50;;;;;28.58;96.11;101900.81;5019922;28;45403;-66
2021/09/07 08:40:12;;;;;;;;;18.25;18.25;;;;;28.81;93.30;101901.84;5023189;28;45438;-66
2021/09/07 08:42:38;;;;;;;;;21.25;16.75;;;;;29.03;93.13;101900.31;5018787;28;45437;-66
2021/09/07 08:45:06;;;;;;;;;17.00;16.75;;;;;29.20;90.71;101897.22;5018408;28;46371;-66
2021/09/07 08:47:31;;;;;;;;;15.75;15.50;;;;;29.36;90.37;101892.41;5018572;28;45590;-66
2021/09/07 08:49:57;;;;;;;;;22.00;18.25;;;;;29.54;88.23;101884.81;5002579;28;45513;-66
2021/09/07 08:52:24;;;;;;;;;19.25;18.25;;;;;29.86;88.68;101899.34;5012218;28;45398;-66
2021/09/07 08:54:50;;;;;;;;;18.00;16.75;;;;;30.16;87.25;101901.53;5017722;28;45491;-67
2021/09/07 08:57:16;;;;;;;;;16.50;15.50;;;;;30.46;85.75;101900.06;5024961;28;45421;-66
2021/09/07 08:59:41;;;;;;;;;18.25;16.50;;;;;30.77;85.31;101904.75;5018238;28;45299;-66
2021/09/07 09:02:18;;;;;;;;;18.50;16.75;;;;;31.13;83.12;101902.72;5024845;28;45444;-65
2021/09/07 09:04:46;;;;;;;;;14.25;13.50;;;;;31.51;83.38;101896.00;5010923;28;46498;-65
2021/09/07 09:07:25;;;;;;;;;18.00;16.00;;;;;31.88;80.84;101893.72;5018088;28;45484;-67
2021/09/07 09:09:51;;;;;;;;;17.50;17.00;;;;;32.22;79.66;101895.22;5010829;28;45513;-65
2021/09/07 09:12:27;;;;;;;;;17.50;15.50;;;;;32.58;78.65;101895.69;5023724;28;45421;-65
2021/09/07 09:14:52;;;;;;;;;15.75;15.75;;;;;32.96;77.31;101896.84;5010599;28;47449;-65
2021/09/07 09:17:17;;;;;;;;;18.00;17.50;;;;;33.31;74.74;101904.44;5021866;28;45392;-65
2021/09/07 09:20:07;;;;;;;;;17.75;14.25;;;;;33.70;73.88;101902.59;5017849;28;45396;-66
2021/09/07 09:22:47;;;;;;;;;18.00;16.00;;;;;34.23;72.99;101904.81;5019168;28;45322;-65
2021/09/07 09:25:19;;;;;;;;;15.25;14.00;;;;;34.86;71.04;101914.03;5004659;28;45458;-67
2021/09/07 09:27:45;;;;;;;;;15.25;15.25;;;;;35.45;68.58;101911.78;5017788;28;45665;-64
2021/09/07 09:30:11;;;;;;;;;14.50;12.50;;;;;36.10;66.94;101910.44;5017638;28;45406;-64
2021/09/07 09:32:47;;;;;;;;;16.50;15.50;;;;;36.81;63.58;101903.88;5018586;28;45519;-66
2021/09/07 09:35:13;;;;;;;;;14.25;13.25;;;;;37.40;61.27;101894.66;5017506;28;45453;-65
2021/09/07 09:38:00;;;;;;;;;19.25;16.00;;;;;38.07;59.11;101896.34;5017573;28;45403;-66
2021/09/07 09:40:26;;;;;;;;;14.00;13.50;;;;;38.47;54.86;101890.75;5017512;28;45370;-66
2021/09/07 09:42:52;;;;;;;;;11.75;11.75;;;;;38.64;53.82;101896.19;5017131;28;45535;-65
2021/09/07 09:45:30;;;;;;;;;10.00;8.75;;;;;38.54;50.90;101890.94;5030843;28;45429;-67
2021/09/07 09:47:56;;;;;;;;;11.25;11.00;;;;;38.10;51.56;101890.53;5017638;28;45372;-66
2021/09/07 09:50:25;;;;;;;;;15.00;12.75;;;;;37.52;51.05;101877.97;5017296;28;45541;-65
2021/09/07 09:52:51;;;;;;;;;14.00;12.00;;;;;37.16;52.03;101880.13;5000274;28;45513;-66
2021/09/07 09:55:18;;;;;;;;;12.75;12.00;;;;;36.86;51.49;101868.81;5025398;28;46573;-66
2021/09/07 09:57:44;;;;;;;;;11.75;11.25;;;;;36.79;52.83;101879.53;5028792;28;45501;-66
2021/09/07 10:00:12;;;;;;;;;14.25;12.00;;;;;36.80;50.74;101870.34;5017353;28;45367;-66
2021/09/07 10:02:38;;;;;;;;;13.25;11.50;;;;;37.04;52.39;101871.44;5017622;28;45464;-67
2021/09/07 10:05:04;;;;;;;;;14.00;14.00;;;;;37.67;49.92;101874.38;5017146;28;45408;-65
2021/09/07 10:07:29;;;;;;;;;12.50;11.75;;;;;38.35;48.83;101867.63;5017212;28;45466;-66
2021/09/07 10:09:57;;;;;;;;;13.00;12.75;;;;;39.15;47.67;101862.78;5018027;28;45345;-67
2021/09/07 10:12:37;;;;;;;;;11.00;10.50;;;;;39.97;44.86;101854.75;5030896;28;45534;-66
2021/09/07 10:15:17;;;;;;;;;12.00;11.50;;;;;40.68;38.32;101849.59;5017214;28;47271;-66
2021/09/07 10:17:48;;;;;;;;;14.25;12.00;;;;;41.25;40.31;101848.78;5016891;28;45575;-66
2021/09/07 10:20:36;;;;;;;;;11.50;11.50;;;;;41.90;39.74;101844.88;5017446;28;45415;-68
2021/09/07 10:25:59;;;;;;;;;14.00;12.50;;;;;43.48;36.51;101841.00;5016827;28;45517;-66
2021/09/07 10:28:29;;;;;;;;;11.75;11.00;;;;;44.27;34.38;101829.84;5016751;28;45547;-66
2021/09/07 10:31:02;;;;;;;;;14.25;13.75;;;;;45.01;32.81;101829.25;5016951;28;45807;-65
2021/09/07 10:33:41;;;;;;;;;17.25;14.00;;;;;45.37;32.57;101825.81;5017993;28;45369;-66
2021/09/07 10:36:22;;;;;;;;;18.00;15.25;;;;;45.63;30.84;101829.41;5016545;28;46502;-65
2021/09/07 10:38:56;;;;;;;;;15.50;12.75;;;;;45.71;30.68;101818.06;5003306;28;45547;-65
2021/09/07 10:41:42;;;;;;;;;19.00;18.25;;;;;46.19;30.21;101815.41;4999743;28;45342;-68
2021/09/07 10:44:08;;;;;;;;;13.50;13.50;;;;;46.81;29.02;101809.69;4980419;28;45606;-65
2021/09/07 10:46:52;;;;;;;;;12.00;11.00;;;;;47.36;28.69;101814.97;4999848;28;46417;-66
2021/09/07 10:49:40;;;;;;;;;10.25;10.00;;;;;47.79;26.23;101800.75;4996769;28;45500;-66
2021/09/07 10:52:08;;;;;;;;;11.50;11.00;;;;;47.94;26.05;101798.34;4998840;28;45514;-65
2021/09/07 10:54:39;;;;;;;;;12.25;11.75;;;;;48.11;26.73;101790.09;4995678;28;45412;-65
2021/09/07 10:57:05;;;;;;;;;11.00;11.00;;;;;48.47;25.43;101789.75;4996384;28;45685;-65
2021/09/07 11:00:08;;;;;;;;;7.25;6.25;;;;;48.60;25.90;101787.75;4996679;28;45677;-65
2021/09/07 11:02:53;;;;;;;;;11.00;11.00;;;;;48.75;23.27;101791.66;4916302;28;45435;-65
2021/09/07 11:05:24;;;;;;;;;12.00;11.50;;;;;48.87;24.30;101774.91;4916435;28;45605;-65